sensor_id;sensor_type;location;lat;lon;timestamp;P1;durP1;ratioP1;P2;durP2;ratioP2
7479;SDS011;3781;42.272;22.658;2023-04-01T00:00:23;4.70;;;1.77;;
7479;SDS011;3781;42.272;22.658;2023-04-01T00:02:50;0.80;;;0.80;;
7479;SDS011;3781;42.272;22.658;2023-04-01T00:05:17;2.80;;;1.00;;
7479;SDS011;3781;42.272;22.658;2023-04-01T00:07:44;0.50;;;0.50;;
7479;SDS011;3781;42.272;22.658;2023-04-01T00:10:12;3.70;;;2.00;;
7479;SDS011;3781;42.272;22.658;2023-04-01T00:12:40;2.17;;;1.13;;
7479;SDS011;3781;42.272;22.658;2023-04-01T00:15:07;1.13;;;1.03;;
7479;SDS011;3781;42.272;22.658;2023-04-01T00:17:35;0.50;;;0.50;;
7479;SDS011;3781;42.272;22.658;2023-04-01T00:20:02;0.73;;;0.60;;
7479;SDS011;3781;42.272;22.658;2023-04-01T00:22:29;1.77;;;1.07;;
7479;SDS011;3781;42.272;22.658;2023-04-01T00:24:56;1.07;;;1.03;;
7479;SDS011;3781;42.272;22.658;2023-04-01T00:27:24;3.00;;;0.87;;
7479;SDS011;3781;42.272;22.658;2023-04-01T00:29:51;1.53;;;0.43;;
7479;SDS011;3781;42.272;22.658;2023-04-01T00:32:18;0.50;;;0.50;;
7479;SDS011;3781;42.272;22.658;2023-04-01T00:34:44;0.77;;;0.43;;
7479;SDS011;3781;42.272;22.658;2023-04-01T00:37:11;6.77;;;2.93;;
7479;SDS011;3781;42.272;22.658;2023-04-01T00:39:38;4.93;;;2.37;;
7479;SDS011;3781;42.272;22.658;2023-04-01T00:42:05;4.33;;;0.67;;
7479;SDS011;3781;42.272;22.658;2023-04-01T00:44:33;2.70;;;0.57;;
7479;SDS011;3781;42.272;22.658;2023-04-01T00:47:00;2.70;;;1.00;;
7479;SDS011;3781;42.272;22.658;2023-04-01T00:49:28;0.30;;;0.30;;
7479;SDS011;3781;42.272;22.658;2023-04-01T00:51:58;0.67;;;0.50;;
7479;SDS011;3781;42.272;22.658;2023-04-01T00:54:28;2.10;;;0.40;;
7479;SDS011;3781;42.272;22.658;2023-04-01T00:56:57;1.03;;;0.60;;
7479;SDS011;3781;42.272;22.658;2023-04-01T00:59:29;0.93;;;0.43;;
7479;SDS011;3781;42.272;22.658;2023-04-01T01:02:00;1.60;;;1.10;;
7479;SDS011;3781;42.272;22.658;2023-04-01T01:04:29;1.57;;;0.50;;
7479;SDS011;3781;42.272;22.658;2023-04-01T01:07:00;1.60;;;0.70;;
7479;SDS011;3781;42.272;22.658;2023-04-01T01:09:39;0.40;;;0.40;;
7479;SDS011;3781;42.272;22.658;2023-04-01T01:12:13;2.93;;;0.73;;
7479;SDS011;3781;42.272;22.658;2023-04-01T01:17:38;0.70;;;0.60;;
7479;SDS011;3781;42.272;22.658;2023-04-01T01:26:30;0.77;;;0.77;;
7479;SDS011;3781;42.272;22.658;2023-04-01T01:29:11;1.03;;;0.83;;
7479;SDS011;3781;42.272;22.658;2023-04-01T01:32:03;1.80;;;0.73;;
7479;SDS011;3781;42.272;22.658;2023-04-01T01:34:40;4.17;;;0.40;;
7479;SDS011;3781;42.272;22.658;2023-04-01T01:37:20;1.40;;;0.30;;
7479;SDS011;3781;42.272;22.658;2023-04-01T01:39:52;3.23;;;0.53;;
7479;SDS011;3781;42.272;22.658;2023-04-01T01:42:23;3.53;;;1.10;;
7479;SDS011;3781;42.272;22.658;2023-04-01T01:44:52;2.00;;;0.90;;
7479;SDS011;3781;42.272;22.658;2023-04-01T01:47:22;1.80;;;1.20;;
7479;SDS011;3781;42.272;22.658;2023-04-01T01:49:51;1.80;;;1.27;;
7479;SDS011;3781;42.272;22.658;2023-04-01T01:52:22;1.23;;;1.00;;
7479;SDS011;3781;42.272;22.658;2023-04-01T01:54:50;1.37;;;0.93;;
7479;SDS011;3781;42.272;22.658;2023-04-01T01:57:19;3.73;;;1.97;;
7479;SDS011;3781;42.272;22.658;2023-04-01T01:59:49;9.47;;;2.10;;
7479;SDS011;3781;42.272;22.658;2023-04-01T02:02:18;2.30;;;1.13;;
7479;SDS011;3781;42.272;22.658;2023-04-01T02:04:47;6.90;;;2.27;;
7479;SDS011;3781;42.272;22.658;2023-04-01T02:07:15;1.73;;;1.60;;
7479;SDS011;3781;42.272;22.658;2023-04-01T02:09:49;5.10;;;1.77;;
7479;SDS011;3781;42.272;22.658;2023-04-01T02:12:16;4.90;;;1.70;;
7479;SDS011;3781;42.272;22.658;2023-04-01T02:14:47;1.57;;;0.93;;
7479;SDS011;3781;42.272;22.658;2023-04-01T02:17:18;1.87;;;1.43;;
7479;SDS011;3781;42.272;22.658;2023-04-01T02:19:47;5.03;;;1.30;;
7479;SDS011;3781;42.272;22.658;2023-04-01T02:22:18;1.70;;;1.60;;
7479;SDS011;3781;42.272;22.658;2023-04-01T02:24:50;1.37;;;1.20;;
7479;SDS011;3781;42.272;22.658;2023-04-01T02:27:18;3.20;;;1.10;;
7479;SDS011;3781;42.272;22.658;2023-04-01T02:29:46;3.77;;;1.03;;
7479;SDS011;3781;42.272;22.658;2023-04-01T02:32:13;3.30;;;0.90;;
7479;SDS011;3781;42.272;22.658;2023-04-01T02:34:42;6.67;;;1.40;;
7479;SDS011;3781;42.272;22.658;2023-04-01T02:37:10;4.60;;;1.20;;
7479;SDS011;3781;42.272;22.658;2023-04-01T02:39:37;3.40;;;1.87;;
7479;SDS011;3781;42.272;22.658;2023-04-01T02:42:06;6.47;;;2.90;;
7479;SDS011;3781;42.272;22.658;2023-04-01T02:44:32;2.53;;;1.53;;
7479;SDS011;3781;42.272;22.658;2023-04-01T02:46:59;4.57;;;1.80;;
7479;SDS011;3781;42.272;22.658;2023-04-01T02:49:26;3.80;;;1.17;;
7479;SDS011;3781;42.272;22.658;2023-04-01T02:51:53;2.80;;;1.57;;
7479;SDS011;3781;42.272;22.658;2023-04-01T02:54:19;7.07;;;3.03;;
7479;SDS011;3781;42.272;22.658;2023-04-01T02:56:46;5.43;;;2.53;;
7479;SDS011;3781;42.272;22.658;2023-04-01T02:59:14;4.00;;;2.10;;
7479;SDS011;3781;42.272;22.658;2023-04-01T03:01:41;4.57;;;1.60;;
7479;SDS011;3781;42.272;22.658;2023-04-01T03:04:08;1.73;;;1.63;;
7479;SDS011;3781;42.272;22.658;2023-04-01T03:06:35;8.40;;;1.50;;
7479;SDS011;3781;42.272;22.658;2023-04-01T03:09:02;5.73;;;1.47;;
7479;SDS011;3781;42.272;22.658;2023-04-01T03:11:29;0.60;;;0.60;;
7479;SDS011;3781;42.272;22.658;2023-04-01T03:13:56;0.60;;;0.60;;
7479;SDS011;3781;42.272;22.658;2023-04-01T03:16:24;10.70;;;1.23;;
7479;SDS011;3781;42.272;22.658;2023-04-01T03:18:51;2.83;;;1.83;;
7479;SDS011;3781;42.272;22.658;2023-04-01T03:21:19;1.17;;;1.17;;
7479;SDS011;3781;42.272;22.658;2023-04-01T03:23:48;0.60;;;0.60;;
7479;SDS011;3781;42.272;22.658;2023-04-01T03:26:15;2.90;;;1.90;;
7479;SDS011;3781;42.272;22.658;2023-04-01T03:28:42;4.03;;;0.87;;
7479;SDS011;3781;42.272;22.658;2023-04-01T03:31:09;0.87;;;0.83;;
7479;SDS011;3781;42.272;22.658;2023-04-01T03:33:37;0.70;;;0.57;;
7479;SDS011;3781;42.272;22.658;2023-04-01T03:36:04;0.93;;;0.80;;
7479;SDS011;3781;42.272;22.658;2023-04-01T03:38:32;0.53;;;0.50;;
7479;SDS011;3781;42.272;22.658;2023-04-01T03:40:59;0.57;;;0.57;;
7479;SDS011;3781;42.272;22.658;2023-04-01T03:43:26;1.43;;;1.03;;
7479;SDS011;3781;42.272;22.658;2023-04-01T03:45:53;1.80;;;0.87;;
7479;SDS011;3781;42.272;22.658;2023-04-01T03:48:22;1.70;;;1.00;;
7479;SDS011;3781;42.272;22.658;2023-04-01T03:50:51;0.73;;;0.33;;
7479;SDS011;3781;42.272;22.658;2023-04-01T03:53:17;1.60;;;0.27;;
7479;SDS011;3781;42.272;22.658;2023-04-01T03:55:44;1.23;;;1.13;;
7479;SDS011;3781;42.272;22.658;2023-04-01T03:58:11;1.10;;;0.97;;
7479;SDS011;3781;42.272;22.658;2023-04-01T04:00:39;2.07;;;0.30;;
7479;SDS011;3781;42.272;22.658;2023-04-01T04:03:06;1.97;;;1.47;;
7479;SDS011;3781;42.272;22.658;2023-04-01T04:05:33;9.23;;;3.97;;
7479;SDS011;3781;42.272;22.658;2023-04-01T04:08:01;6.20;;;2.93;;
7479;SDS011;3781;42.272;22.658;2023-04-01T04:10:28;1.90;;;1.33;;
7479;SDS011;3781;42.272;22.658;2023-04-01T04:12:55;14.20;;;2.17;;
7479;SDS011;3781;42.272;22.658;2023-04-01T04:15:23;2.80;;;2.13;;
7479;SDS011;3781;42.272;22.658;2023-04-01T04:17:50;2.17;;;1.93;;
7479;SDS011;3781;42.272;22.658;2023-04-01T04:20:17;2.83;;;1.20;;
7479;SDS011;3781;42.272;22.658;2023-04-01T04:22:43;1.03;;;1.03;;
7479;SDS011;3781;42.272;22.658;2023-04-01T04:25:11;1.73;;;0.80;;
7479;SDS011;3781;42.272;22.658;2023-04-01T04:27:38;1.90;;;0.70;;
7479;SDS011;3781;42.272;22.658;2023-04-01T04:30:06;0.73;;;0.57;;
7479;SDS011;3781;42.272;22.658;2023-04-01T04:32:34;3.33;;;0.60;;
7479;SDS011;3781;42.272;22.658;2023-04-01T04:35:01;0.23;;;0.23;;
7479;SDS011;3781;42.272;22.658;2023-04-01T04:37:28;1.30;;;0.43;;
7479;SDS011;3781;42.272;22.658;2023-04-01T04:39:55;0.30;;;0.27;;
7479;SDS011;3781;42.272;22.658;2023-04-01T04:42:23;2.13;;;1.13;;
7479;SDS011;3781;42.272;22.658;2023-04-01T04:44:50;0.77;;;0.67;;
7479;SDS011;3781;42.272;22.658;2023-04-01T04:47:16;0.77;;;0.77;;
7479;SDS011;3781;42.272;22.658;2023-04-01T04:49:43;0.33;;;0.33;;
7479;SDS011;3781;42.272;22.658;2023-04-01T04:52:10;0.73;;;0.73;;
7479;SDS011;3781;42.272;22.658;2023-04-01T04:54:37;3.30;;;1.90;;
7479;SDS011;3781;42.272;22.658;2023-04-01T04:57:04;1.90;;;0.80;;
7479;SDS011;3781;42.272;22.658;2023-04-01T04:59:32;2.53;;;1.07;;
7479;SDS011;3781;42.272;22.658;2023-04-01T05:01:58;0.60;;;0.50;;
7479;SDS011;3781;42.272;22.658;2023-04-01T05:04:25;0.83;;;0.77;;
7479;SDS011;3781;42.272;22.658;2023-04-01T05:06:52;0.90;;;0.57;;
7479;SDS011;3781;42.272;22.658;2023-04-01T05:09:19;0.70;;;0.70;;
7479;SDS011;3781;42.272;22.658;2023-04-01T05:11:45;2.87;;;1.50;;
7479;SDS011;3781;42.272;22.658;2023-04-01T05:14:13;1.80;;;1.47;;
7479;SDS011;3781;42.272;22.658;2023-04-01T05:16:41;1.10;;;1.00;;
7479;SDS011;3781;42.272;22.658;2023-04-01T05:19:08;6.77;;;2.87;;
7479;SDS011;3781;42.272;22.658;2023-04-01T05:21:35;2.67;;;1.20;;
7479;SDS011;3781;42.272;22.658;2023-04-01T05:24:02;3.00;;;1.73;;
7479;SDS011;3781;42.272;22.658;2023-04-01T05:26:29;2.13;;;1.60;;
7479;SDS011;3781;42.272;22.658;2023-04-01T05:28:57;2.00;;;1.27;;
7479;SDS011;3781;42.272;22.658;2023-04-01T05:31:24;3.03;;;1.00;;
7479;SDS011;3781;42.272;22.658;2023-04-01T05:33:52;5.77;;;1.60;;
7479;SDS011;3781;42.272;22.658;2023-04-01T05:36:19;1.37;;;1.27;;
7479;SDS011;3781;42.272;22.658;2023-04-01T05:38:46;1.27;;;1.00;;
7479;SDS011;3781;42.272;22.658;2023-04-01T05:41:13;15.10;;;6.63;;
7479;SDS011;3781;42.272;22.658;2023-04-01T05:43:40;15.53;;;6.17;;
7479;SDS011;3781;42.272;22.658;2023-04-01T05:46:07;7.07;;;3.90;;
7479;SDS011;3781;42.272;22.658;2023-04-01T05:48:34;6.07;;;3.40;;
7479;SDS011;3781;42.272;22.658;2023-04-01T05:51:03;8.00;;;3.57;;
7479;SDS011;3781;42.272;22.658;2023-04-01T05:53:30;3.60;;;3.10;;
7479;SDS011;3781;42.272;22.658;2023-04-01T05:56:01;4.07;;;2.23;;
7479;SDS011;3781;42.272;22.658;2023-04-01T05:58:31;6.13;;;2.50;;
7479;SDS011;3781;42.272;22.658;2023-04-01T06:01:02;10.70;;;3.30;;
7479;SDS011;3781;42.272;22.658;2023-04-01T06:03:30;6.03;;;4.40;;
7479;SDS011;3781;42.272;22.658;2023-04-01T06:05:57;10.97;;;3.43;;
7479;SDS011;3781;42.272;22.658;2023-04-01T06:08:25;7.17;;;2.73;;
7479;SDS011;3781;42.272;22.658;2023-04-01T06:10:55;5.33;;;1.97;;
7479;SDS011;3781;42.272;22.658;2023-04-01T06:13:33;6.80;;;2.63;;
7479;SDS011;3781;42.272;22.658;2023-04-01T06:16:15;4.17;;;2.30;;
7479;SDS011;3781;42.272;22.658;2023-04-01T06:18:57;3.97;;;2.10;;
7479;SDS011;3781;42.272;22.658;2023-04-01T06:21:44;4.83;;;2.47;;
7479;SDS011;3781;42.272;22.658;2023-04-01T06:24:31;10.70;;;2.57;;
7479;SDS011;3781;42.272;22.658;2023-04-01T06:27:16;9.93;;;1.80;;
7479;SDS011;3781;42.272;22.658;2023-04-01T06:29:55;4.50;;;1.80;;
7479;SDS011;3781;42.272;22.658;2023-04-01T06:32:41;5.97;;;2.80;;
7479;SDS011;3781;42.272;22.658;2023-04-01T06:35:28;2.73;;;2.30;;
7479;SDS011;3781;42.272;22.658;2023-04-01T06:38:15;3.50;;;2.00;;
7479;SDS011;3781;42.272;22.658;2023-04-01T06:40:57;1.63;;;1.03;;
7479;SDS011;3781;42.272;22.658;2023-04-01T06:43:50;15.87;;;1.30;;
7479;SDS011;3781;42.272;22.658;2023-04-01T06:46:26;4.00;;;0.90;;
7479;SDS011;3781;42.272;22.658;2023-04-01T06:49:03;1.27;;;0.70;;
7479;SDS011;3781;42.272;22.658;2023-04-01T06:51:44;0.90;;;0.87;;
7479;SDS011;3781;42.272;22.658;2023-04-01T06:54:20;1.03;;;0.97;;
7479;SDS011;3781;42.272;22.658;2023-04-01T06:56:53;5.20;;;1.60;;
7479;SDS011;3781;42.272;22.658;2023-04-01T06:59:25;1.80;;;1.17;;
7479;SDS011;3781;42.272;22.658;2023-04-01T07:01:54;6.37;;;1.60;;
7479;SDS011;3781;42.272;22.658;2023-04-01T07:04:25;4.30;;;2.20;;
7479;SDS011;3781;42.272;22.658;2023-04-01T07:06:57;3.63;;;2.40;;
7479;SDS011;3781;42.272;22.658;2023-04-01T07:09:26;7.13;;;2.83;;
7479;SDS011;3781;42.272;22.658;2023-04-01T07:12:05;1.77;;;1.37;;
7479;SDS011;3781;42.272;22.658;2023-04-01T07:14:39;2.07;;;0.73;;
7479;SDS011;3781;42.272;22.658;2023-04-01T07:17:08;1.40;;;1.27;;
7479;SDS011;3781;42.272;22.658;2023-04-01T07:19:42;3.57;;;0.77;;
7479;SDS011;3781;42.272;22.658;2023-04-01T07:22:26;1.27;;;1.13;;
7479;SDS011;3781;42.272;22.658;2023-04-01T07:24:55;2.47;;;1.20;;
7479;SDS011;3781;42.272;22.658;2023-04-01T07:27:29;3.77;;;1.00;;
7479;SDS011;3781;42.272;22.658;2023-04-01T07:29:55;2.53;;;0.87;;
7479;SDS011;3781;42.272;22.658;2023-04-01T07:32:31;4.37;;;1.77;;
7479;SDS011;3781;42.272;22.658;2023-04-01T07:35:13;3.20;;;1.33;;
7479;SDS011;3781;42.272;22.658;2023-04-01T07:37:53;5.00;;;1.50;;
7479;SDS011;3781;42.272;22.658;2023-04-01T07:40:45;1.80;;;1.50;;
7479;SDS011;3781;42.272;22.658;2023-04-01T07:43:36;3.60;;;1.67;;
7479;SDS011;3781;42.272;22.658;2023-04-01T07:46:18;2.80;;;1.97;;
7479;SDS011;3781;42.272;22.658;2023-04-01T07:48:57;3.33;;;1.10;;
7479;SDS011;3781;42.272;22.658;2023-04-01T07:51:31;4.07;;;1.90;;
7479;SDS011;3781;42.272;22.658;2023-04-01T07:54:09;1.77;;;1.23;;
7479;SDS011;3781;42.272;22.658;2023-04-01T07:56:48;0.60;;;0.60;;
7479;SDS011;3781;42.272;22.658;2023-04-01T07:59:29;1.40;;;0.93;;
7479;SDS011;3781;42.272;22.658;2023-04-01T08:02:15;2.30;;;1.00;;
7479;SDS011;3781;42.272;22.658;2023-04-01T08:04:59;2.53;;;0.63;;
7479;SDS011;3781;42.272;22.658;2023-04-01T08:07:35;2.27;;;1.30;;
7479;SDS011;3781;42.272;22.658;2023-04-01T08:10:11;6.00;;;1.90;;
7479;SDS011;3781;42.272;22.658;2023-04-01T08:12:50;5.53;;;2.50;;
7479;SDS011;3781;42.272;22.658;2023-04-01T08:15:27;8.60;;;1.93;;
7479;SDS011;3781;42.272;22.658;2023-04-01T08:18:08;3.93;;;1.87;;
7479;SDS011;3781;42.272;22.658;2023-04-01T08:20:41;1.30;;;1.20;;
7479;SDS011;3781;42.272;22.658;2023-04-01T08:23:13;2.90;;;2.25;;
7479;SDS011;3781;42.272;22.658;2023-04-01T08:25:44;2.20;;;2.10;;
7479;SDS011;3781;42.272;22.658;2023-04-01T08:28:19;2.80;;;1.70;;
7479;SDS011;3781;42.272;22.658;2023-04-01T08:30:55;5.30;;;2.40;;
7479;SDS011;3781;42.272;22.658;2023-04-01T08:33:27;4.80;;;2.50;;
7479;SDS011;3781;42.272;22.658;2023-04-01T08:36:02;6.13;;;2.67;;
7479;SDS011;3781;42.272;22.658;2023-04-01T08:41:09;5.40;;;2.20;;
7479;SDS011;3781;42.272;22.658;2023-04-01T08:47:07;3.20;;;2.20;;
7479;SDS011;3781;42.272;22.658;2023-04-01T08:52:45;4.80;;;2.20;;
7479;SDS011;3781;42.272;22.658;2023-04-01T09:08:50;5.90;;;2.10;;
7479;SDS011;3781;42.272;22.658;2023-04-01T09:11:30;4.65;;;2.20;;
7479;SDS011;3781;42.272;22.658;2023-04-01T09:14:31;4.60;;;2.20;;
7479;SDS011;3781;42.272;22.658;2023-04-01T09:17:17;2.90;;;1.80;;
7479;SDS011;3781;42.272;22.658;2023-04-01T09:23:01;1.53;;;1.43;;
7479;SDS011;3781;42.272;22.658;2023-04-01T09:26:03;2.03;;;1.07;;
7479;SDS011;3781;42.272;22.658;2023-04-01T09:28:41;3.30;;;1.67;;
7479;SDS011;3781;42.272;22.658;2023-04-01T09:31:25;2.83;;;1.93;;
7479;SDS011;3781;42.272;22.658;2023-04-01T09:34:20;1.80;;;1.27;;
7479;SDS011;3781;42.272;22.658;2023-04-01T09:37:02;2.23;;;1.70;;
7479;SDS011;3781;42.272;22.658;2023-04-01T09:39:45;3.67;;;2.33;;
7479;SDS011;3781;42.272;22.658;2023-04-01T09:42:38;3.23;;;1.77;;
7479;SDS011;3781;42.272;22.658;2023-04-01T09:45:09;2.70;;;2.20;;
7479;SDS011;3781;42.272;22.658;2023-04-01T09:53:04;1.70;;;1.30;;
7479;SDS011;3781;42.272;22.658;2023-04-01T09:55:56;1.50;;;1.20;;
7479;SDS011;3781;42.272;22.658;2023-04-01T10:02:03;3.77;;;1.53;;
7479;SDS011;3781;42.272;22.658;2023-04-01T10:08:09;8.07;;;1.20;;
7479;SDS011;3781;42.272;22.658;2023-04-01T10:17:21;5.43;;;0.73;;
7479;SDS011;3781;42.272;22.658;2023-04-01T10:23:27;0.60;;;0.60;;
7479;SDS011;3781;42.272;22.658;2023-04-01T10:26:23;9.47;;;0.67;;
7479;SDS011;3781;42.272;22.658;2023-04-01T10:29:18;0.53;;;0.50;;
7479;SDS011;3781;42.272;22.658;2023-04-01T10:41:43;3.60;;;0.70;;
7479;SDS011;3781;42.272;22.658;2023-04-01T10:44:49;2.43;;;0.77;;
7479;SDS011;3781;42.272;22.658;2023-04-01T10:47:48;0.37;;;0.33;;
7479;SDS011;3781;42.272;22.658;2023-04-01T10:51:01;0.73;;;0.37;;
7479;SDS011;3781;42.272;22.658;2023-04-01T10:53:46;1.73;;;0.63;;
7479;SDS011;3781;42.272;22.658;2023-04-01T10:56:39;1.87;;;1.73;;
7479;SDS011;3781;42.272;22.658;2023-04-01T11:08:25;1.20;;;1.10;;
7479;SDS011;3781;42.272;22.658;2023-04-01T11:13:55;1.03;;;0.63;;
7479;SDS011;3781;42.272;22.658;2023-04-01T11:16:49;1.03;;;0.63;;
7479;SDS011;3781;42.272;22.658;2023-04-01T11:19:38;0.40;;;0.40;;
7479;SDS011;3781;42.272;22.658;2023-04-01T11:25:29;0.70;;;0.50;;
7479;SDS011;3781;42.272;22.658;2023-04-01T11:28:22;0.77;;;0.77;;
7479;SDS011;3781;42.272;22.658;2023-04-01T11:31:11;5.43;;;0.50;;
7479;SDS011;3781;42.272;22.658;2023-04-01T11:33:54;1.03;;;0.60;;
7479;SDS011;3781;42.272;22.658;2023-04-01T11:36:32;0.70;;;0.70;;
7479;SDS011;3781;42.272;22.658;2023-04-01T11:39:14;0.93;;;0.83;;
7479;SDS011;3781;42.272;22.658;2023-04-01T11:41:52;0.30;;;0.30;;
7479;SDS011;3781;42.272;22.658;2023-04-01T11:44:28;0.50;;;0.50;;
7479;SDS011;3781;42.272;22.658;2023-04-01T11:47:00;1.27;;;0.50;;
7479;SDS011;3781;42.272;22.658;2023-04-01T11:49:44;1.80;;;0.70;;
7479;SDS011;3781;42.272;22.658;2023-04-01T11:52:26;3.70;;;1.95;;
7479;SDS011;3781;42.272;22.658;2023-04-01T11:55:06;0.40;;;0.40;;
7479;SDS011;3781;42.272;22.658;2023-04-01T11:57:50;0.63;;;0.53;;
7479;SDS011;3781;42.272;22.658;2023-04-01T12:00:35;0.40;;;0.40;;
7479;SDS011;3781;42.272;22.658;2023-04-01T12:03:26;0.60;;;0.60;;
7479;SDS011;3781;42.272;22.658;2023-04-01T12:06:13;1.00;;;1.00;;
7479;SDS011;3781;42.272;22.658;2023-04-01T12:08:46;1.77;;;1.00;;
7479;SDS011;3781;42.272;22.658;2023-04-01T12:11:23;0.20;;;0.20;;
7479;SDS011;3781;42.272;22.658;2023-04-01T12:13:58;5.80;;;1.13;;
7479;SDS011;3781;42.272;22.658;2023-04-01T12:16:35;1.87;;;0.60;;
7479;SDS011;3781;42.272;22.658;2023-04-01T12:19:12;0.33;;;0.33;;
7479;SDS011;3781;42.272;22.658;2023-04-01T12:21:54;1.47;;;1.10;;
7479;SDS011;3781;42.272;22.658;2023-04-01T12:24:38;0.40;;;0.30;;
7479;SDS011;3781;42.272;22.658;2023-04-01T12:27:24;5.37;;;1.57;;
7479;SDS011;3781;42.272;22.658;2023-04-01T12:30:25;6.93;;;2.70;;
7479;SDS011;3781;42.272;22.658;2023-04-01T12:33:34;2.27;;;1.37;;
7479;SDS011;3781;42.272;22.658;2023-04-01T12:42:23;2.23;;;1.73;;
7479;SDS011;3781;42.272;22.658;2023-04-01T12:45:21;0.40;;;0.40;;
7479;SDS011;3781;42.272;22.658;2023-04-01T12:48:20;0.80;;;0.70;;
7479;SDS011;3781;42.272;22.658;2023-04-01T12:51:01;0.87;;;0.87;;
7479;SDS011;3781;42.272;22.658;2023-04-01T12:53:46;1.00;;;0.87;;
7479;SDS011;3781;42.272;22.658;2023-04-01T12:56:28;0.77;;;0.77;;
7479;SDS011;3781;42.272;22.658;2023-04-01T12:59:21;0.53;;;0.53;;
7479;SDS011;3781;42.272;22.658;2023-04-01T13:02:06;3.90;;;1.83;;
7479;SDS011;3781;42.272;22.658;2023-04-01T13:04:51;3.47;;;2.17;;
7479;SDS011;3781;42.272;22.658;2023-04-01T13:10:29;6.97;;;1.30;;
7479;SDS011;3781;42.272;22.658;2023-04-01T13:13:07;1.13;;;1.03;;
7479;SDS011;3781;42.272;22.658;2023-04-01T13:15:48;0.67;;;0.60;;
7479;SDS011;3781;42.272;22.658;2023-04-01T13:18:21;1.03;;;0.93;;
7479;SDS011;3781;42.272;22.658;2023-04-01T13:21:00;2.80;;;1.00;;
7479;SDS011;3781;42.272;22.658;2023-04-01T13:23:35;1.87;;;0.83;;
7479;SDS011;3781;42.272;22.658;2023-04-01T13:26:17;1.00;;;0.90;;
7479;SDS011;3781;42.272;22.658;2023-04-01T13:28:50;1.10;;;0.90;;
7479;SDS011;3781;42.272;22.658;2023-04-01T13:31:31;0.83;;;0.63;;
7479;SDS011;3781;42.272;22.658;2023-04-01T13:34:17;5.23;;;1.30;;
7479;SDS011;3781;42.272;22.658;2023-04-01T13:36:56;3.33;;;0.77;;
7479;SDS011;3781;42.272;22.658;2023-04-01T13:42:25;0.73;;;0.53;;
7479;SDS011;3781;42.272;22.658;2023-04-01T13:44:56;0.90;;;0.67;;
7479;SDS011;3781;42.272;22.658;2023-04-01T13:50:33;0.00;;;0.00;;
7479;SDS011;3781;42.272;22.658;2023-04-01T13:55:49;0.20;;;0.20;;
7479;SDS011;3781;42.272;22.658;2023-04-01T14:01:23;0.30;;;0.20;;
7479;SDS011;3781;42.272;22.658;2023-04-01T14:04:11;0.13;;;0.13;;
7479;SDS011;3781;42.272;22.658;2023-04-01T14:10:17;0.20;;;0.20;;
7479;SDS011;3781;42.272;22.658;2023-04-01T14:12:50;0.00;;;0.00;;
7479;SDS011;3781;42.272;22.658;2023-04-01T14:18:19;6.13;;;2.00;;
7479;SDS011;3781;42.272;22.658;2023-04-01T14:21:13;1.23;;;1.10;;
7479;SDS011;3781;42.272;22.658;2023-04-01T14:23:55;6.73;;;2.37;;
7479;SDS011;3781;42.272;22.658;2023-04-01T14:26:31;8.30;;;2.40;;
7479;SDS011;3781;42.272;22.658;2023-04-01T14:29:15;1.10;;;0.80;;
7479;SDS011;3781;42.272;22.658;2023-04-01T14:31:54;0.80;;;0.50;;
7479;SDS011;3781;42.272;22.658;2023-04-01T14:34:32;1.40;;;0.40;;
7479;SDS011;3781;42.272;22.658;2023-04-01T14:37:30;3.10;;;2.80;;
7479;SDS011;3781;42.272;22.658;2023-04-01T14:42:55;0.90;;;0.43;;
7479;SDS011;3781;42.272;22.658;2023-04-01T14:45:41;0.50;;;0.40;;
7479;SDS011;3781;42.272;22.658;2023-04-01T14:48:23;1.43;;;0.43;;
7479;SDS011;3781;42.272;22.658;2023-04-01T14:50:54;0.30;;;0.30;;
7479;SDS011;3781;42.272;22.658;2023-04-01T14:53:29;1.43;;;1.20;;
7479;SDS011;3781;42.272;22.658;2023-04-01T14:56:00;2.93;;;1.20;;
7479;SDS011;3781;42.272;22.658;2023-04-01T14:58:39;0.80;;;0.80;;
7479;SDS011;3781;42.272;22.658;2023-04-01T15:01:12;0.50;;;0.27;;
7479;SDS011;3781;42.272;22.658;2023-04-01T15:03:55;0.30;;;0.30;;
7479;SDS011;3781;42.272;22.658;2023-04-01T15:09:23;0.63;;;0.63;;
7479;SDS011;3781;42.272;22.658;2023-04-01T15:12:04;0.27;;;0.27;;
7479;SDS011;3781;42.272;22.658;2023-04-01T15:17:55;0.30;;;0.30;;
7479;SDS011;3781;42.272;22.658;2023-04-01T15:20:36;0.63;;;0.63;;
7479;SDS011;3781;42.272;22.658;2023-04-01T15:23:18;4.20;;;1.87;;
7479;SDS011;3781;42.272;22.658;2023-04-01T15:26:03;7.03;;;2.03;;
7479;SDS011;3781;42.272;22.658;2023-04-01T15:28:40;0.70;;;0.70;;
7479;SDS011;3781;42.272;22.658;2023-04-01T15:31:20;4.33;;;1.00;;
7479;SDS011;3781;42.272;22.658;2023-04-01T15:33:59;0.80;;;0.60;;
7479;SDS011;3781;42.272;22.658;2023-04-01T15:36:41;0.30;;;0.30;;
7479;SDS011;3781;42.272;22.658;2023-04-01T15:39:13;3.73;;;0.93;;
7479;SDS011;3781;42.272;22.658;2023-04-01T15:41:46;1.27;;;1.20;;
7479;SDS011;3781;42.272;22.658;2023-04-01T15:47:31;3.87;;;1.80;;
7479;SDS011;3781;42.272;22.658;2023-04-01T15:50:13;2.83;;;0.67;;
7479;SDS011;3781;42.272;22.658;2023-04-01T15:52:56;0.57;;;0.57;;
7479;SDS011;3781;42.272;22.658;2023-04-01T15:55:37;2.07;;;0.97;;
7479;SDS011;3781;42.272;22.658;2023-04-01T15:58:18;4.80;;;1.43;;
7479;SDS011;3781;42.272;22.658;2023-04-01T16:00:56;2.33;;;1.77;;
7479;SDS011;3781;42.272;22.658;2023-04-01T16:03:39;3.37;;;2.33;;
7479;SDS011;3781;42.272;22.658;2023-04-01T16:06:18;2.33;;;2.07;;
7479;SDS011;3781;42.272;22.658;2023-04-01T16:09:06;4.40;;;2.30;;
7479;SDS011;3781;42.272;22.658;2023-04-01T16:11:43;5.60;;;2.57;;
7479;SDS011;3781;42.272;22.658;2023-04-01T16:14:25;2.17;;;1.07;;
7479;SDS011;3781;42.272;22.658;2023-04-01T16:17:03;0.30;;;0.23;;
7479;SDS011;3781;42.272;22.658;2023-04-01T16:19:41;0.47;;;0.47;;
7479;SDS011;3781;42.272;22.658;2023-04-01T16:22:19;0.43;;;0.40;;
7479;SDS011;3781;42.272;22.658;2023-04-01T16:24:53;3.83;;;0.97;;
7479;SDS011;3781;42.272;22.658;2023-04-01T16:27:27;0.73;;;0.20;;
7479;SDS011;3781;42.272;22.658;2023-04-01T16:30:03;0.20;;;0.20;;
7479;SDS011;3781;42.272;22.658;2023-04-01T16:32:53;5.40;;;1.20;;
7479;SDS011;3781;42.272;22.658;2023-04-01T16:35:29;1.60;;;1.13;;
7479;SDS011;3781;42.272;22.658;2023-04-01T16:38:05;0.23;;;0.23;;
7479;SDS011;3781;42.272;22.658;2023-04-01T16:40:44;1.13;;;0.67;;
7479;SDS011;3781;42.272;22.658;2023-04-01T16:43:21;0.43;;;0.33;;
7479;SDS011;3781;42.272;22.658;2023-04-01T16:45:57;0.40;;;0.40;;
7479;SDS011;3781;42.272;22.658;2023-04-01T16:48:45;0.60;;;0.60;;
7479;SDS011;3781;42.272;22.658;2023-04-01T16:51:23;0.70;;;0.47;;
7479;SDS011;3781;42.272;22.658;2023-04-01T16:53:52;0.90;;;0.73;;
7479;SDS011;3781;42.272;22.658;2023-04-01T16:56:37;2.37;;;0.53;;
7479;SDS011;3781;42.272;22.658;2023-04-01T16:59:13;0.30;;;0.30;;
7479;SDS011;3781;42.272;22.658;2023-04-01T17:01:47;1.70;;;1.07;;
7479;SDS011;3781;42.272;22.658;2023-04-01T17:04:19;4.33;;;0.30;;
7479;SDS011;3781;42.272;22.658;2023-04-01T17:06:53;1.70;;;0.73;;
7479;SDS011;3781;42.272;22.658;2023-04-01T17:09:29;1.40;;;0.30;;
7479;SDS011;3781;42.272;22.658;2023-04-01T17:12:09;0.23;;;0.20;;
7479;SDS011;3781;42.272;22.658;2023-04-01T17:14:45;0.93;;;0.20;;
7479;SDS011;3781;42.272;22.658;2023-04-01T17:17:18;2.83;;;0.87;;
7479;SDS011;3781;42.272;22.658;2023-04-01T17:20:02;1.37;;;0.87;;
7479;SDS011;3781;42.272;22.658;2023-04-01T17:22:43;1.90;;;1.20;;
7479;SDS011;3781;42.272;22.658;2023-04-01T17:25:21;3.63;;;1.43;;
7479;SDS011;3781;42.272;22.658;2023-04-01T17:28:12;2.50;;;1.93;;
7479;SDS011;3781;42.272;22.658;2023-04-01T17:30:47;2.20;;;1.20;;
7479;SDS011;3781;42.272;22.658;2023-04-01T17:33:27;2.50;;;1.10;;
7479;SDS011;3781;42.272;22.658;2023-04-01T17:36:20;2.33;;;1.20;;
7479;SDS011;3781;42.272;22.658;2023-04-01T17:39:02;1.83;;;1.73;;
7479;SDS011;3781;42.272;22.658;2023-04-01T17:41:45;1.60;;;0.97;;
7479;SDS011;3781;42.272;22.658;2023-04-01T17:44:31;1.23;;;0.87;;
7479;SDS011;3781;42.272;22.658;2023-04-01T17:47:18;3.17;;;1.07;;
7479;SDS011;3781;42.272;22.658;2023-04-01T17:49:56;0.53;;;0.53;;
7479;SDS011;3781;42.272;22.658;2023-04-01T17:52:33;1.37;;;0.57;;